sensor_id;sensor_type;location;lat;lon;timestamp;P1;durP1;ratioP1;P2;durP2;ratioP2
80637;SDS011;69991;51.760;19.528;2023-12-14T00:01:13;26.90;;;11.10;;
80637;SDS011;69991;51.760;19.528;2023-12-14T00:03:55;23.40;;;10.60;;
80637;SDS011;69991;51.760;19.528;2023-12-14T00:06:36;23.30;;;9.50;;
80637;SDS011;69991;51.760;19.528;2023-12-14T00:09:12;22.70;;;10.60;;
80637;SDS011;69991;51.760;19.528;2023-12-14T00:12:00;25.50;;;11.00;;
80637;SDS011;69991;51.760;19.528;2023-12-14T00:14:38;27.70;;;11.50;;
80637;SDS011;69991;51.760;19.528;2023-12-14T00:17:26;28.40;;;11.90;;
80637;SDS011;69991;51.760;19.528;2023-12-14T00:20:03;24.40;;;10.80;;
80637;SDS011;69991;51.760;19.528;2023-12-14T00:22:52;26.30;;;11.30;;
80637;SDS011;69991;51.760;19.528;2023-12-14T00:25:28;24.10;;;10.60;;
80637;SDS011;69991;51.760;19.528;2023-12-14T00:28:17;25.50;;;10.80;;
80637;SDS011;69991;51.760;19.528;2023-12-14T00:30:52;26.50;;;12.00;;
80637;SDS011;69991;51.760;19.528;2023-12-14T00:33:47;26.20;;;11.50;;
80637;SDS011;69991;51.760;19.528;2023-12-14T00:36:23;27.50;;;10.90;;
80637;SDS011;69991;51.760;19.528;2023-12-14T00:39:11;29.00;;;11.20;;
80637;SDS011;69991;51.760;19.528;2023-12-14T00:41:47;23.40;;;10.20;;
80637;SDS011;69991;51.760;19.528;2023-12-14T00:44:35;20.40;;;9.00;;
80637;SDS011;69991;51.760;19.528;2023-12-14T00:47:11;24.50;;;10.10;;
80637;SDS011;69991;51.760;19.528;2023-12-14T00:49:59;23.90;;;11.00;;
80637;SDS011;69991;51.760;19.528;2023-12-14T00:52:35;26.20;;;10.50;;
80637;SDS011;69991;51.760;19.528;2023-12-14T00:55:23;25.90;;;11.30;;
80637;SDS011;69991;51.760;19.528;2023-12-14T00:57:59;23.40;;;10.70;;
80637;SDS011;69991;51.760;19.528;2023-12-14T01:00:47;23.00;;;10.00;;
80637;SDS011;69991;51.760;19.528;2023-12-14T01:03:23;20.70;;;9.60;;
80637;SDS011;69991;51.760;19.528;2023-12-14T01:06:11;23.50;;;10.70;;
80637;SDS011;69991;51.760;19.528;2023-12-14T01:08:47;20.60;;;8.60;;
80637;SDS011;69991;51.760;19.528;2023-12-14T01:11:35;23.80;;;9.90;;
80637;SDS011;69991;51.760;19.528;2023-12-14T01:14:11;24.30;;;10.60;;
80637;SDS011;69991;51.760;19.528;2023-12-14T01:16:59;26.10;;;10.60;;
80637;SDS011;69991;51.760;19.528;2023-12-14T01:19:35;24.40;;;10.00;;
80637;SDS011;69991;51.760;19.528;2023-12-14T01:22:23;22.40;;;9.60;;
80637;SDS011;69991;51.760;19.528;2023-12-14T01:24:59;22.20;;;9.40;;
80637;SDS011;69991;51.760;19.528;2023-12-14T01:27:47;29.00;;;11.10;;
80637;SDS011;69991;51.760;19.528;2023-12-14T01:30:23;17.90;;;8.50;;
80637;SDS011;69991;51.760;19.528;2023-12-14T01:33:11;23.30;;;9.20;;
80637;SDS011;69991;51.760;19.528;2023-12-14T01:36:08;23.40;;;9.90;;
80637;SDS011;69991;51.760;19.528;2023-12-14T01:38:44;24.90;;;10.30;;
80637;SDS011;69991;51.760;19.528;2023-12-14T01:41:32;20.80;;;9.20;;
80637;SDS011;69991;51.760;19.528;2023-12-14T01:44:08;24.60;;;10.90;;
80637;SDS011;69991;51.760;19.528;2023-12-14T01:46:56;15.70;;;7.00;;
80637;SDS011;69991;51.760;19.528;2023-12-14T01:49:32;18.90;;;8.20;;
80637;SDS011;69991;51.760;19.528;2023-12-14T01:52:22;16.90;;;7.40;;
80637;SDS011;69991;51.760;19.528;2023-12-14T01:54:58;16.60;;;7.20;;
80637;SDS011;69991;51.760;19.528;2023-12-14T01:57:46;15.40;;;7.10;;
80637;SDS011;69991;51.760;19.528;2023-12-14T02:00:27;18.20;;;8.20;;
80637;SDS011;69991;51.760;19.528;2023-12-14T02:03:18;19.90;;;9.10;;
80637;SDS011;69991;51.760;19.528;2023-12-14T02:05:54;20.30;;;8.50;;
80637;SDS011;69991;51.760;19.528;2023-12-14T02:08:42;19.10;;;7.70;;
80637;SDS011;69991;51.760;19.528;2023-12-14T02:11:18;14.10;;;5.60;;
80637;SDS011;69991;51.760;19.528;2023-12-14T02:14:05;13.10;;;5.70;;
80637;SDS011;69991;51.760;19.528;2023-12-14T02:16:47;16.90;;;7.40;;
80637;SDS011;69991;51.760;19.528;2023-12-14T02:19:30;15.20;;;6.40;;
80637;SDS011;69991;51.760;19.528;2023-12-14T02:22:12;16.00;;;7.20;;
80637;SDS011;69991;51.760;19.528;2023-12-14T02:24:55;16.40;;;7.20;;
80637;SDS011;69991;51.760;19.528;2023-12-14T02:27:36;15.30;;;7.20;;
80637;SDS011;69991;51.760;19.528;2023-12-14T02:30:19;14.70;;;5.90;;
80637;SDS011;69991;51.760;19.528;2023-12-14T02:33:00;12.00;;;6.10;;
80637;SDS011;69991;51.760;19.528;2023-12-14T02:35:43;9.70;;;4.90;;
80637;SDS011;69991;51.760;19.528;2023-12-14T02:38:24;11.60;;;5.10;;
80637;SDS011;69991;51.760;19.528;2023-12-14T02:41:07;11.20;;;5.40;;
80637;SDS011;69991;51.760;19.528;2023-12-14T02:43:48;13.00;;;5.40;;
80637;SDS011;69991;51.760;19.528;2023-12-14T02:46:31;13.20;;;5.70;;
80637;SDS011;69991;51.760;19.528;2023-12-14T02:49:12;10.50;;;5.10;;
80637;SDS011;69991;51.760;19.528;2023-12-14T02:51:55;10.00;;;4.90;;
80637;SDS011;69991;51.760;19.528;2023-12-14T02:54:38;11.00;;;5.30;;
80637;SDS011;69991;51.760;19.528;2023-12-14T02:57:21;10.10;;;4.90;;
80637;SDS011;69991;51.760;19.528;2023-12-14T03:00:02;9.70;;;4.50;;
80637;SDS011;69991;51.760;19.528;2023-12-14T03:02:45;9.20;;;4.80;;
80637;SDS011;69991;51.760;19.528;2023-12-14T03:05:26;10.90;;;5.00;;
80637;SDS011;69991;51.760;19.528;2023-12-14T03:08:02;9.60;;;4.80;;
80637;SDS011;69991;51.760;19.528;2023-12-14T03:10:50;10.10;;;5.00;;
80637;SDS011;69991;51.760;19.528;2023-12-14T03:13:26;10.80;;;5.50;;
80637;SDS011;69991;51.760;19.528;2023-12-14T03:16:14;10.50;;;5.00;;
80637;SDS011;69991;51.760;19.528;2023-12-14T03:18:52;9.40;;;4.90;;
80637;SDS011;69991;51.760;19.528;2023-12-14T03:21:40;11.20;;;5.30;;
80637;SDS011;69991;51.760;19.528;2023-12-14T03:24:16;10.00;;;4.70;;
80637;SDS011;69991;51.760;19.528;2023-12-14T03:27:04;11.70;;;5.20;;
80637;SDS011;69991;51.760;19.528;2023-12-14T03:29:40;11.40;;;5.40;;
80637;SDS011;69991;51.760;19.528;2023-12-14T03:32:28;13.50;;;6.20;;
80637;SDS011;69991;51.760;19.528;2023-12-14T03:35:24;13.10;;;6.00;;
80637;SDS011;69991;51.760;19.528;2023-12-14T03:38:07;11.20;;;5.70;;
80637;SDS011;69991;51.760;19.528;2023-12-14T03:40:49;12.40;;;5.50;;
80637;SDS011;69991;51.760;19.528;2023-12-14T03:43:32;13.00;;;5.90;;
80637;SDS011;69991;51.760;19.528;2023-12-14T03:46:13;12.30;;;5.50;;
80637;SDS011;69991;51.760;19.528;2023-12-14T03:48:56;11.90;;;5.50;;
80637;SDS011;69991;51.760;19.528;2023-12-14T03:51:39;10.80;;;5.10;;
80637;SDS011;69991;51.760;19.528;2023-12-14T03:54:22;12.00;;;5.60;;
80637;SDS011;69991;51.760;19.528;2023-12-14T03:57:04;11.70;;;6.10;;
80637;SDS011;69991;51.760;19.528;2023-12-14T03:59:48;12.60;;;5.70;;
80637;SDS011;69991;51.760;19.528;2023-12-14T04:02:30;11.20;;;5.10;;
80637;SDS011;69991;51.760;19.528;2023-12-14T04:05:13;10.70;;;5.40;;
80637;SDS011;69991;51.760;19.528;2023-12-14T04:07:55;13.90;;;5.70;;
80637;SDS011;69991;51.760;19.528;2023-12-14T04:10:38;11.70;;;4.60;;
80637;SDS011;69991;51.760;19.528;2023-12-14T04:13:19;11.00;;;5.20;;
80637;SDS011;69991;51.760;19.528;2023-12-14T04:16:08;12.90;;;5.10;;
80637;SDS011;69991;51.760;19.528;2023-12-14T04:19:06;14.90;;;7.30;;
80637;SDS011;69991;51.760;19.528;2023-12-14T04:22:02;14.90;;;6.90;;
80637;SDS011;69991;51.760;19.528;2023-12-14T04:24:58;11.90;;;6.00;;
80637;SDS011;69991;51.760;19.528;2023-12-14T04:27:54;11.40;;;5.40;;
80637;SDS011;69991;51.760;19.528;2023-12-14T04:30:50;12.50;;;5.70;;
80637;SDS011;69991;51.760;19.528;2023-12-14T04:33:26;9.80;;;4.80;;
80637;SDS011;69991;51.760;19.528;2023-12-14T04:36:14;11.00;;;5.20;;
80637;SDS011;69991;51.760;19.528;2023-12-14T04:38:50;12.50;;;5.40;;
80637;SDS011;69991;51.760;19.528;2023-12-14T04:41:38;9.80;;;5.00;;
80637;SDS011;69991;51.760;19.528;2023-12-14T04:44:14;14.90;;;6.70;;
80637;SDS011;69991;51.760;19.528;2023-12-14T04:47:02;14.60;;;6.90;;
80637;SDS011;69991;51.760;19.528;2023-12-14T04:49:38;13.10;;;6.50;;
80637;SDS011;69991;51.760;19.528;2023-12-14T04:52:26;16.50;;;7.50;;
80637;SDS011;69991;51.760;19.528;2023-12-14T04:55:03;13.10;;;6.80;;
80637;SDS011;69991;51.760;19.528;2023-12-14T04:57:52;12.80;;;6.10;;
80637;SDS011;69991;51.760;19.528;2023-12-14T05:00:28;15.10;;;7.10;;
80637;SDS011;69991;51.760;19.528;2023-12-14T05:03:16;15.40;;;6.40;;
80637;SDS011;69991;51.760;19.528;2023-12-14T05:05:52;12.10;;;6.10;;
80637;SDS011;69991;51.760;19.528;2023-12-14T05:08:40;15.70;;;6.60;;
80637;SDS011;69991;51.760;19.528;2023-12-14T05:11:37;15.80;;;7.00;;
80637;SDS011;69991;51.760;19.528;2023-12-14T05:14:34;15.20;;;7.30;;
80637;SDS011;69991;51.760;19.528;2023-12-14T05:17:30;13.80;;;6.50;;
80637;SDS011;69991;51.760;19.528;2023-12-14T05:20:26;15.30;;;6.60;;
80637;SDS011;69991;51.760;19.528;2023-12-14T05:23:22;11.90;;;5.60;;
80637;SDS011;69991;51.760;19.528;2023-12-14T05:26:19;11.60;;;5.10;;
80637;SDS011;69991;51.760;19.528;2023-12-14T05:29:14;13.10;;;5.90;;
80637;SDS011;69991;51.760;19.528;2023-12-14T05:32:12;13.70;;;5.90;;
80637;SDS011;69991;51.760;19.528;2023-12-14T05:35:08;17.50;;;7.50;;
80637;SDS011;69991;51.760;19.528;2023-12-14T05:38:04;15.90;;;7.40;;
80637;SDS011;69991;51.760;19.528;2023-12-14T05:41:00;18.30;;;8.40;;
80637;SDS011;69991;51.760;19.528;2023-12-14T05:43:36;15.70;;;7.20;;
80637;SDS011;69991;51.760;19.528;2023-12-14T05:46:24;14.70;;;6.40;;
80637;SDS011;69991;51.760;19.528;2023-12-14T05:49:00;16.10;;;7.20;;
80637;SDS011;69991;51.760;19.528;2023-12-14T05:51:48;14.40;;;7.30;;
80637;SDS011;69991;51.760;19.528;2023-12-14T05:54:24;16.90;;;7.60;;
80637;SDS011;69991;51.760;19.528;2023-12-14T05:57:12;15.10;;;6.30;;
80637;SDS011;69991;51.760;19.528;2023-12-14T05:59:49;15.00;;;6.80;;
80637;SDS011;69991;51.760;19.528;2023-12-14T06:02:40;20.10;;;7.60;;
80637;SDS011;69991;51.760;19.528;2023-12-14T06:05:22;17.90;;;7.60;;
80637;SDS011;69991;51.760;19.528;2023-12-14T06:08:03;17.00;;;8.00;;
80637;SDS011;69991;51.760;19.528;2023-12-14T06:10:46;16.30;;;7.10;;
80637;SDS011;69991;51.760;19.528;2023-12-14T06:13:37;15.10;;;6.40;;
80637;SDS011;69991;51.760;19.528;2023-12-14T06:16:13;16.80;;;7.80;;
80637;SDS011;69991;51.760;19.528;2023-12-14T06:19:02;15.20;;;6.80;;
80637;SDS011;69991;51.760;19.528;2023-12-14T06:21:38;12.40;;;5.60;;
80637;SDS011;69991;51.760;19.528;2023-12-14T06:24:27;14.00;;;6.40;;
80637;SDS011;69991;51.760;19.528;2023-12-14T06:27:03;18.00;;;7.20;;
80637;SDS011;69991;51.760;19.528;2023-12-14T06:29:52;19.50;;;7.70;;
80637;SDS011;69991;51.760;19.528;2023-12-14T06:32:28;17.20;;;7.50;;
80637;SDS011;69991;51.760;19.528;2023-12-14T06:35:17;13.40;;;6.10;;
80637;SDS011;69991;51.760;19.528;2023-12-14T06:37:53;16.00;;;7.10;;
80637;SDS011;69991;51.760;19.528;2023-12-14T06:40:41;14.50;;;6.50;;
80637;SDS011;69991;51.760;19.528;2023-12-14T06:43:18;13.30;;;6.40;;
80637;SDS011;69991;51.760;19.528;2023-12-14T06:45:53;13.70;;;6.70;;
80637;SDS011;69991;51.760;19.528;2023-12-14T06:48:34;14.50;;;5.90;;
80637;SDS011;69991;51.760;19.528;2023-12-14T06:51:10;14.80;;;6.20;;
80637;SDS011;69991;51.760;19.528;2023-12-14T06:53:45;17.30;;;7.60;;
80637;SDS011;69991;51.760;19.528;2023-12-14T06:56:27;19.20;;;8.20;;
80637;SDS011;69991;51.760;19.528;2023-12-14T06:59:03;17.10;;;7.60;;
80637;SDS011;69991;51.760;19.528;2023-12-14T07:01:38;14.30;;;6.40;;
80637;SDS011;69991;51.760;19.528;2023-12-14T07:04:19;12.90;;;6.30;;
80637;SDS011;69991;51.760;19.528;2023-12-14T07:06:55;14.10;;;6.10;;
80637;SDS011;69991;51.760;19.528;2023-12-14T07:09:30;17.70;;;7.10;;
80637;SDS011;69991;51.760;19.528;2023-12-14T07:12:11;16.30;;;6.30;;
80637;SDS011;69991;51.760;19.528;2023-12-14T07:14:49;14.50;;;6.30;;
80637;SDS011;69991;51.760;19.528;2023-12-14T07:17:24;16.70;;;8.00;;
80637;SDS011;69991;51.760;19.528;2023-12-14T07:20:06;15.90;;;7.30;;
80637;SDS011;69991;51.760;19.528;2023-12-14T07:22:43;18.40;;;8.30;;
80637;SDS011;69991;51.760;19.528;2023-12-14T07:25:18;14.80;;;6.60;;
80637;SDS011;69991;51.760;19.528;2023-12-14T07:27:59;14.90;;;6.40;;
80637;SDS011;69991;51.760;19.528;2023-12-14T07:30:42;17.10;;;6.70;;
80637;SDS011;69991;51.760;19.528;2023-12-14T07:33:23;16.20;;;6.80;;
80637;SDS011;69991;51.760;19.528;2023-12-14T07:36:06;11.80;;;5.70;;
80637;SDS011;69991;51.760;19.528;2023-12-14T07:38:47;16.00;;;7.20;;
80637;SDS011;69991;51.760;19.528;2023-12-14T07:41:31;18.60;;;8.30;;
80637;SDS011;69991;51.760;19.528;2023-12-14T07:44:13;21.70;;;8.90;;
80637;SDS011;69991;51.760;19.528;2023-12-14T07:46:56;18.30;;;7.90;;
80637;SDS011;69991;51.760;19.528;2023-12-14T07:49:40;17.50;;;8.10;;
80637;SDS011;69991;51.760;19.528;2023-12-14T07:52:23;18.10;;;9.10;;
80637;SDS011;69991;51.760;19.528;2023-12-14T07:55:05;17.20;;;8.30;;
80637;SDS011;69991;51.760;19.528;2023-12-14T07:57:47;18.60;;;7.90;;
80637;SDS011;69991;51.760;19.528;2023-12-14T08:00:35;16.80;;;7.60;;
80637;SDS011;69991;51.760;19.528;2023-12-14T08:03:11;13.90;;;6.40;;
80637;SDS011;69991;51.760;19.528;2023-12-14T08:05:46;20.90;;;8.80;;
80637;SDS011;69991;51.760;19.528;2023-12-14T08:08:28;21.10;;;9.00;;
80637;SDS011;69991;51.760;19.528;2023-12-14T08:11:04;18.80;;;8.40;;
80637;SDS011;69991;51.760;19.528;2023-12-14T08:13:41;16.60;;;7.80;;
80637;SDS011;69991;51.760;19.528;2023-12-14T08:16:23;13.40;;;6.60;;
80637;SDS011;69991;51.760;19.528;2023-12-14T08:18:59;14.80;;;7.10;;
80637;SDS011;69991;51.760;19.528;2023-12-14T08:21:34;13.90;;;6.20;;
80637;SDS011;69991;51.760;19.528;2023-12-14T08:24:15;15.60;;;6.60;;
80637;SDS011;69991;51.760;19.528;2023-12-14T08:26:58;13.60;;;6.20;;
80637;SDS011;69991;51.760;19.528;2023-12-14T08:29:39;17.80;;;8.10;;
80637;SDS011;69991;51.760;19.528;2023-12-14T08:32:22;16.60;;;8.10;;
80637;SDS011;69991;51.760;19.528;2023-12-14T08:35:10;11.10;;;5.40;;
80637;SDS011;69991;51.760;19.528;2023-12-14T08:37:46;12.40;;;5.20;;
80637;SDS011;69991;51.760;19.528;2023-12-14T08:40:34;11.90;;;5.50;;
80637;SDS011;69991;51.760;19.528;2023-12-14T08:43:10;9.30;;;4.30;;
80637;SDS011;69991;51.760;19.528;2023-12-14T08:46:00;10.40;;;4.80;;
80637;SDS011;69991;51.760;19.528;2023-12-14T08:48:36;10.80;;;4.90;;
80637;SDS011;69991;51.760;19.528;2023-12-14T08:51:24;9.80;;;5.10;;
80637;SDS011;69991;51.760;19.528;2023-12-14T08:54:02;13.60;;;6.10;;
80637;SDS011;69991;51.760;19.528;2023-12-14T08:56:51;11.00;;;5.70;;
80637;SDS011;69991;51.760;19.528;2023-12-14T08:59:27;11.90;;;5.20;;
80637;SDS011;69991;51.760;19.528;2023-12-14T09:02:15;10.70;;;5.00;;
80637;SDS011;69991;51.760;19.528;2023-12-14T09:04:51;11.00;;;5.30;;
80637;SDS011;69991;51.760;19.528;2023-12-14T09:07:27;11.10;;;5.90;;
80637;SDS011;69991;51.760;19.528;2023-12-14T09:10:08;12.30;;;5.30;;
80637;SDS011;69991;51.760;19.528;2023-12-14T09:12:44;16.60;;;6.90;;
80637;SDS011;69991;51.760;19.528;2023-12-14T09:15:19;15.40;;;7.60;;
80637;SDS011;69991;51.760;19.528;2023-12-14T09:18:00;16.30;;;7.90;;
80637;SDS011;69991;51.760;19.528;2023-12-14T09:20:36;15.70;;;7.70;;
80637;SDS011;69991;51.760;19.528;2023-12-14T09:23:13;17.50;;;7.80;;
80637;SDS011;69991;51.760;19.528;2023-12-14T09:25:54;16.30;;;6.90;;
80637;SDS011;69991;51.760;19.528;2023-12-14T09:28:31;18.80;;;8.20;;
80637;SDS011;69991;51.760;19.528;2023-12-14T09:31:06;13.40;;;6.50;;
80637;SDS011;69991;51.760;19.528;2023-12-14T09:33:47;15.50;;;7.20;;
80637;SDS011;69991;51.760;19.528;2023-12-14T09:36:30;17.70;;;8.60;;
80637;SDS011;69991;51.760;19.528;2023-12-14T09:39:11;18.30;;;8.50;;
80637;SDS011;69991;51.760;19.528;2023-12-14T09:42:01;16.50;;;8.50;;
80637;SDS011;69991;51.760;19.528;2023-12-14T09:44:43;17.80;;;7.90;;
80637;SDS011;69991;51.760;19.528;2023-12-14T09:47:26;11.80;;;5.70;;
80637;SDS011;69991;51.760;19.528;2023-12-14T09:50:08;19.30;;;8.20;;
80637;SDS011;69991;51.760;19.528;2023-12-14T09:52:52;13.90;;;6.30;;
80637;SDS011;69991;51.760;19.528;2023-12-14T09:55:33;17.30;;;8.50;;
80637;SDS011;69991;51.760;19.528;2023-12-14T09:58:16;13.80;;;6.20;;
80637;SDS011;69991;51.760;19.528;2023-12-14T10:00:57;16.60;;;6.80;;
80637;SDS011;69991;51.760;19.528;2023-12-14T10:03:35;20.20;;;8.80;;
80637;SDS011;69991;51.760;19.528;2023-12-14T10:06:11;15.70;;;7.00;;
80637;SDS011;69991;51.760;19.528;2023-12-14T10:08:55;16.10;;;7.50;;
80637;SDS011;69991;51.760;19.528;2023-12-14T10:11:31;15.10;;;6.80;;
80637;SDS011;69991;51.760;19.528;2023-12-14T10:14:28;17.80;;;8.10;;
80637;SDS011;69991;51.760;19.528;2023-12-14T10:17:19;14.50;;;6.90;;
80637;SDS011;69991;51.760;19.528;2023-12-14T10:19:57;13.80;;;6.90;;
80637;SDS011;69991;51.760;19.528;2023-12-14T10:22:33;15.20;;;7.10;;
80637;SDS011;69991;51.760;19.528;2023-12-14T10:25:21;17.40;;;8.00;;
80637;SDS011;69991;51.760;19.528;2023-12-14T10:27:57;15.40;;;7.50;;
80637;SDS011;69991;51.760;19.528;2023-12-14T10:30:47;14.20;;;7.30;;
80637;SDS011;69991;51.760;19.528;2023-12-14T10:33:27;14.90;;;7.60;;
80637;SDS011;69991;51.760;19.528;2023-12-14T10:36:24;14.90;;;6.70;;
80637;SDS011;69991;51.760;19.528;2023-12-14T10:39:20;13.80;;;6.50;;
80637;SDS011;69991;51.760;19.528;2023-12-14T10:42:16;13.70;;;6.90;;
80637;SDS011;69991;51.760;19.528;2023-12-14T10:45:13;16.30;;;7.10;;
80637;SDS011;69991;51.760;19.528;2023-12-14T10:48:10;15.70;;;7.60;;
80637;SDS011;69991;51.760;19.528;2023-12-14T10:51:08;20.20;;;8.90;;
80637;SDS011;69991;51.760;19.528;2023-12-14T10:54:05;20.10;;;9.90;;
80637;SDS011;69991;51.760;19.528;2023-12-14T10:57:01;17.10;;;8.90;;
80637;SDS011;69991;51.760;19.528;2023-12-14T11:00:01;16.80;;;8.60;;
80637;SDS011;69991;51.760;19.528;2023-12-14T11:02:59;12.10;;;6.40;;
80637;SDS011;69991;51.760;19.528;2023-12-14T11:05:37;10.40;;;5.40;;
80637;SDS011;69991;51.760;19.528;2023-12-14T11:08:36;18.80;;;8.90;;
80637;SDS011;69991;51.760;19.528;2023-12-14T11:11:12;14.50;;;6.60;;
80637;SDS011;69991;51.760;19.528;2023-12-14T11:14:01;12.80;;;5.30;;
80637;SDS011;69991;51.760;19.528;2023-12-14T11:16:39;16.00;;;7.40;;
80637;SDS011;69991;51.760;19.528;2023-12-14T11:19:29;16.40;;;8.30;;
80637;SDS011;69991;51.760;19.528;2023-12-14T11:24:58;16.80;;;8.00;;
80637;SDS011;69991;51.760;19.528;2023-12-14T11:27:35;12.20;;;5.90;;
80637;SDS011;69991;51.760;19.528;2023-12-14T11:30:31;14.80;;;6.90;;
80637;SDS011;69991;51.760;19.528;2023-12-14T11:33:26;14.20;;;6.80;;
80637;SDS011;69991;51.760;19.528;2023-12-14T11:36:25;11.20;;;5.20;;
80637;SDS011;69991;51.760;19.528;2023-12-14T11:39:21;16.10;;;7.70;;
80637;SDS011;69991;51.760;19.528;2023-12-14T11:42:04;14.10;;;7.20;;
80637;SDS011;69991;51.760;19.528;2023-12-14T11:44:56;13.60;;;7.20;;
80637;SDS011;69991;51.760;19.528;2023-12-14T11:47:32;12.20;;;5.70;;
80637;SDS011;69991;51.760;19.528;2023-12-14T11:50:20;10.20;;;5.10;;
80637;SDS011;69991;51.760;19.528;2023-12-14T11:52:56;10.40;;;5.40;;
80637;SDS011;69991;51.760;19.528;2023-12-14T11:55:46;14.70;;;7.00;;
80637;SDS011;69991;51.760;19.528;2023-12-14T11:58:22;17.60;;;9.10;;
80637;SDS011;69991;51.760;19.528;2023-12-14T12:01:14;18.40;;;8.90;;
80637;SDS011;69991;51.760;19.528;2023-12-14T12:03:50;16.70;;;7.90;;
80637;SDS011;69991;51.760;19.528;2023-12-14T12:06:39;13.20;;;6.40;;
80637;SDS011;69991;51.760;19.528;2023-12-14T12:09:31;14.00;;;7.00;;
80637;SDS011;69991;51.760;19.528;2023-12-14T12:12:33;13.50;;;6.50;;
80637;SDS011;69991;51.760;19.528;2023-12-14T12:15:34;16.00;;;6.70;;
80637;SDS011;69991;51.760;19.528;2023-12-14T12:18:30;15.50;;;7.00;;
80637;SDS011;69991;51.760;19.528;2023-12-14T12:21:26;15.10;;;7.10;;
80637;SDS011;69991;51.760;19.528;2023-12-14T12:24:22;12.60;;;6.20;;
80637;SDS011;69991;51.760;19.528;2023-12-14T12:27:18;15.80;;;8.30;;
80637;SDS011;69991;51.760;19.528;2023-12-14T12:30:14;13.20;;;5.90;;
80637;SDS011;69991;51.760;19.528;2023-12-14T12:33:10;15.30;;;7.10;;
80637;SDS011;69991;51.760;19.528;2023-12-14T12:36:06;17.10;;;7.50;;
80637;SDS011;69991;51.760;19.528;2023-12-14T12:38:42;12.90;;;5.80;;
80637;SDS011;69991;51.760;19.528;2023-12-14T12:41:30;12.10;;;5.00;;
80637;SDS011;69991;51.760;19.528;2023-12-14T12:44:06;14.90;;;7.20;;
80637;SDS011;69991;51.760;19.528;2023-12-14T12:46:54;14.50;;;6.20;;
80637;SDS011;69991;51.760;19.528;2023-12-14T12:49:39;19.00;;;8.50;;
80637;SDS011;69991;51.760;19.528;2023-12-14T12:52:27;21.60;;;9.50;;
80637;SDS011;69991;51.760;19.528;2023-12-14T12:55:05;21.40;;;8.80;;
80637;SDS011;69991;51.760;19.528;2023-12-14T12:57:54;11.90;;;6.00;;
80637;SDS011;69991;51.760;19.528;2023-12-14T13:00:30;11.80;;;5.20;;
80637;SDS011;69991;51.760;19.528;2023-12-14T13:03:19;16.80;;;7.30;;
80637;SDS011;69991;51.760;19.528;2023-12-14T13:05:55;19.20;;;8.20;;
80637;SDS011;69991;51.760;19.528;2023-12-14T13:08:44;15.00;;;7.00;;
80637;SDS011;69991;51.760;19.528;2023-12-14T13:11:27;15.70;;;6.80;;
80637;SDS011;69991;51.760;19.528;2023-12-14T13:14:08;17.90;;;7.60;;
80637;SDS011;69991;51.760;19.528;2023-12-14T13:16:51;17.80;;;8.20;;
80637;SDS011;69991;51.760;19.528;2023-12-14T13:19:36;14.90;;;7.30;;
80637;SDS011;69991;51.760;19.528;2023-12-14T13:22:19;16.60;;;7.90;;
80637;SDS011;69991;51.760;19.528;2023-12-14T13:25:04;17.80;;;7.90;;
80637;SDS011;69991;51.760;19.528;2023-12-14T13:27:47;16.10;;;7.10;;
80637;SDS011;69991;51.760;19.528;2023-12-14T13:30:28;16.50;;;7.30;;
80637;SDS011;69991;51.760;19.528;2023-12-14T13:33:17;16.70;;;7.30;;
80637;SDS011;69991;51.760;19.528;2023-12-14T13:36:13;15.20;;;6.80;;
80637;SDS011;69991;51.760;19.528;2023-12-14T13:39:09;18.70;;;8.50;;
80637;SDS011;69991;51.760;19.528;2023-12-14T13:41:45;20.90;;;9.10;;
80637;SDS011;69991;51.760;19.528;2023-12-14T13:44:33;17.70;;;8.00;;
80637;SDS011;69991;51.760;19.528;2023-12-14T13:47:10;19.60;;;9.40;;
80637;SDS011;69991;51.760;19.528;2023-12-14T13:49:58;16.70;;;8.00;;
80637;SDS011;69991;51.760;19.528;2023-12-14T13:52:34;15.50;;;7.20;;
80637;SDS011;69991;51.760;19.528;2023-12-14T13:55:22;21.70;;;9.00;;
80637;SDS011;69991;51.760;19.528;2023-12-14T13:57:58;16.70;;;7.10;;
80637;SDS011;69991;51.760;19.528;2023-12-14T14:00:46;17.00;;;8.10;;
80637;SDS011;69991;51.760;19.528;2023-12-14T14:03:30;14.30;;;6.70;;
80637;SDS011;69991;51.760;19.528;2023-12-14T14:06:13;19.80;;;8.70;;
80637;SDS011;69991;51.760;19.528;2023-12-14T14:08:56;18.00;;;7.80;;
80637;SDS011;69991;51.760;19.528;2023-12-14T14:11:45;11.80;;;5.30;;
80637;SDS011;69991;51.760;19.528;2023-12-14T14:14:23;15.80;;;7.40;;
80637;SDS011;69991;51.760;19.528;2023-12-14T14:17:11;15.90;;;8.60;;
80637;SDS011;69991;51.760;19.528;2023-12-14T14:19:47;16.30;;;7.80;;
80637;SDS011;69991;51.760;19.528;2023-12-14T14:22:38;15.30;;;7.10;;
80637;SDS011;69991;51.760;19.528;2023-12-14T14:25:20;19.30;;;9.60;;
80637;SDS011;69991;51.760;19.528;2023-12-14T14:28:03;19.30;;;8.60;;
80637;SDS011;69991;51.760;19.528;2023-12-14T14:30:45;18.60;;;9.30;;
80637;SDS011;69991;51.760;19.528;2023-12-14T14:33:21;13.00;;;5.80;;
80637;SDS011;69991;51.760;19.528;2023-12-14T14:36:10;18.20;;;8.50;;
80637;SDS011;69991;51.760;19.528;2023-12-14T14:38:45;17.00;;;7.50;;
80637;SDS011;69991;51.760;19.528;2023-12-14T14:41:35;19.50;;;9.00;;
80637;SDS011;69991;51.760;19.528;2023-12-14T14:44:11;19.70;;;8.80;;
80637;SDS011;69991;51.760;19.528;2023-12-14T14:46:59;22.30;;;10.20;;
80637;SDS011;69991;51.760;19.528;2023-12-14T14:49:35;24.90;;;9.70;;
80637;SDS011;69991;51.760;19.528;2023-12-14T14:52:25;20.60;;;9.30;;
80637;SDS011;69991;51.760;19.528;2023-12-14T14:55:00;20.60;;;9.10;;
80637;SDS011;69991;51.760;19.528;2023-12-14T14:57:49;19.90;;;9.30;;
80637;SDS011;69991;51.760;19.528;2023-12-14T15:00:25;21.10;;;8.70;;
80637;SDS011;69991;51.760;19.528;2023-12-14T15:03:14;20.50;;;9.00;;
80637;SDS011;69991;51.760;19.528;2023-12-14T15:05:50;24.40;;;9.50;;
80637;SDS011;69991;51.760;19.528;2023-12-14T15:08:39;16.00;;;7.00;;
80637;SDS011;69991;51.760;19.528;2023-12-14T15:11:15;25.00;;;10.60;;
80637;SDS011;69991;51.760;19.528;2023-12-14T15:14:03;25.60;;;11.50;;
80637;SDS011;69991;51.760;19.528;2023-12-14T15:16:39;22.20;;;9.90;;
80637;SDS011;69991;51.760;19.528;2023-12-14T15:19:28;26.50;;;10.80;;
80637;SDS011;69991;51.760;19.528;2023-12-14T15:22:04;23.60;;;10.40;;
80637;SDS011;69991;51.760;19.528;2023-12-14T15:24:52;18.50;;;8.50;;
80637;SDS011;69991;51.760;19.528;2023-12-14T15:27:28;13.00;;;5.70;;
80637;SDS011;69991;51.760;19.528;2023-12-14T15:30:16;20.40;;;7.80;;
80637;SDS011;69991;51.760;19.528;2023-12-14T15:32:52;22.20;;;8.80;;
80637;SDS011;69991;51.760;19.528;2023-12-14T15:35:40;23.00;;;8.50;;
80637;SDS011;69991;51.760;19.528;2023-12-14T15:38:16;22.70;;;9.10;;
80637;SDS011;69991;51.760;19.528;2023-12-14T15:41:04;18.90;;;7.80;;
80637;SDS011;69991;51.760;19.528;2023-12-14T15:43:40;18.80;;;7.90;;
80637;SDS011;69991;51.760;19.528;2023-12-14T15:46:29;19.70;;;7.90;;
80637;SDS011;69991;51.760;19.528;2023-12-14T15:49:05;19.20;;;8.00;;
80637;SDS011;69991;51.760;19.528;2023-12-14T15:51:53;15.30;;;6.20;;
80637;SDS011;69991;51.760;19.528;2023-12-14T15:54:29;21.70;;;8.90;;
80637;SDS011;69991;51.760;19.528;2023-12-14T15:57:18;23.00;;;8.70;;
80637;SDS011;69991;51.760;19.528;2023-12-14T15:59:54;22.20;;;9.00;;